sensor_id;sensor_type;location;lat;lon;timestamp;pressure;altitude;pressure_sealevel;temperature;humidity
52975;BME280;38839;45.186;5.720;2023-08-12T00:00:05;99495.56;;;24.59;90.69
52975;BME280;38839;45.186;5.720;2023-08-12T00:02:41;99491.34;;;24.55;91.64
52975;BME280;38839;45.186;5.720;2023-08-12T00:05:07;99494.00;;;24.55;91.57
52975;BME280;38839;45.186;5.720;2023-08-12T00:07:33;99494.00;;;24.55;92.11
52975;BME280;38839;45.186;5.720;2023-08-12T00:10:03;99491.66;;;24.48;92.59
52975;BME280;38839;45.186;5.720;2023-08-12T00:12:31;99491.84;;;24.45;92.89
52975;BME280;38839;45.186;5.720;2023-08-12T00:14:57;99494.50;;;24.45;93.69
52975;BME280;38839;45.186;5.720;2023-08-12T00:17:22;99500.00;;;24.42;93.54
52975;BME280;38839;45.186;5.720;2023-08-12T00:19:48;99496.47;;;24.42;93.33
52975;BME280;38839;45.186;5.720;2023-08-12T00:22:13;99491.91;;;24.44;93.36
52975;BME280;38839;45.186;5.720;2023-08-12T00:24:39;99491.22;;;24.40;94.11
52975;BME280;38839;45.186;5.720;2023-08-12T00:27:05;99490.34;;;24.40;93.49
52975;BME280;38839;45.186;5.720;2023-08-12T00:29:31;99499.06;;;24.43;93.40
52975;BME280;38839;45.186;5.720;2023-08-12T00:31:57;99501.88;;;24.40;93.53
52975;BME280;38839;45.186;5.720;2023-08-12T00:34:22;99501.72;;;24.43;93.26
52975;BME280;38839;45.186;5.720;2023-08-12T00:36:47;99499.13;;;24.42;93.51
52975;BME280;38839;45.186;5.720;2023-08-12T00:39:13;99488.53;;;24.40;93.64
52975;BME280;38839;45.186;5.720;2023-08-12T00:41:39;99493.88;;;24.40;93.62
52975;BME280;38839;45.186;5.720;2023-08-12T00:44:04;99492.31;;;24.36;94.04
52975;BME280;38839;45.186;5.720;2023-08-12T00:46:29;99496.88;;;24.34;93.92
52975;BME280;38839;45.186;5.720;2023-08-12T00:48:55;99493.44;;;24.32;94.32
52975;BME280;38839;45.186;5.720;2023-08-12T00:51:21;99493.63;;;24.29;94.17
52975;BME280;38839;45.186;5.720;2023-08-12T00:53:47;99492.06;;;24.25;94.52
52975;BME280;38839;45.186;5.720;2023-08-12T00:56:13;99499.44;;;24.20;94.46
52975;BME280;38839;45.186;5.720;2023-08-12T00:58:39;99497.09;;;24.14;94.82
52975;BME280;38839;45.186;5.720;2023-08-12T01:01:05;99499.94;;;24.10;95.02
52975;BME280;38839;45.186;5.720;2023-08-12T01:03:31;99497.28;;;24.10;95.24
52975;BME280;38839;45.186;5.720;2023-08-12T01:05:57;99497.34;;;24.09;94.87
52975;BME280;38839;45.186;5.720;2023-08-12T01:08:28;99498.53;;;24.03;95.49
52975;BME280;38839;45.186;5.720;2023-08-12T01:11:00;99498.72;;;24.00;95.67
52975;BME280;38839;45.186;5.720;2023-08-12T01:13:32;99499.03;;;23.94;96.44
52975;BME280;38839;45.186;5.720;2023-08-12T01:16:03;99496.44;;;23.93;96.44
52975;BME280;38839;45.186;5.720;2023-08-12T01:18:31;99504.69;;;23.88;96.71
52975;BME280;38839;45.186;5.720;2023-08-12T01:20:58;99497.78;;;23.84;96.79
52975;BME280;38839;45.186;5.720;2023-08-12T01:23:24;99494.34;;;23.82;97.13
52975;BME280;38839;45.186;5.720;2023-08-12T01:25:49;99493.78;;;23.75;97.05
52975;BME280;38839;45.186;5.720;2023-08-12T01:28:15;99494.00;;;23.70;98.00
52975;BME280;38839;45.186;5.720;2023-08-12T01:33:28;99492.38;;;23.68;98.69
52975;BME280;38839;45.186;5.720;2023-08-12T01:36:16;99488.78;;;23.69;99.07
52975;BME280;38839;45.186;5.720;2023-08-12T01:38:43;99496.97;;;23.64;98.81
52975;BME280;38839;45.186;5.720;2023-08-12T01:41:12;99497.16;;;23.61;99.13
52975;BME280;38839;45.186;5.720;2023-08-12T01:43:39;99492.53;;;23.65;99.08
52975;BME280;38839;45.186;5.720;2023-08-12T01:46:05;99494.47;;;23.61;99.29
52975;BME280;38839;45.186;5.720;2023-08-12T01:48:30;99489.00;;;23.47;100.00
52975;BME280;38839;45.186;5.720;2023-08-12T01:50:56;99498.41;;;23.37;100.00
52975;BME280;38839;45.186;5.720;2023-08-12T01:53:21;99503.84;;;23.34;100.00
52975;BME280;38839;45.186;5.720;2023-08-12T01:55:49;99491.81;;;23.26;100.00
52975;BME280;38839;45.186;5.720;2023-08-12T01:58:16;99493.94;;;23.20;100.00
52975;BME280;38839;45.186;5.720;2023-08-12T02:00:41;99500.88;;;23.22;100.00
52975;BME280;38839;45.186;5.720;2023-08-12T02:03:06;99494.00;;;23.18;100.00
52975;BME280;38839;45.186;5.720;2023-08-12T02:05:32;99493.69;;;23.24;100.00
52975;BME280;38839;45.186;5.720;2023-08-12T02:07:58;99495.41;;;23.25;100.00
52975;BME280;38839;45.186;5.720;2023-08-12T02:10:23;99499.88;;;23.25;100.00
52975;BME280;38839;45.186;5.720;2023-08-12T02:12:49;99493.69;;;23.24;100.00
52975;BME280;38839;45.186;5.720;2023-08-12T02:15:14;99483.19;;;23.21;100.00
52975;BME280;38839;45.186;5.720;2023-08-12T02:17:39;99493.81;;;23.21;100.00
52975;BME280;38839;45.186;5.720;2023-08-12T02:20:05;99492.13;;;23.20;100.00
52975;BME280;38839;45.186;5.720;2023-08-12T02:22:31;99491.25;;;23.20;100.00
52975;BME280;38839;45.186;5.720;2023-08-12T02:24:56;99492.13;;;23.20;100.00
52975;BME280;38839;45.186;5.720;2023-08-12T02:27:22;99493.69;;;23.24;100.00
52975;BME280;38839;45.186;5.720;2023-08-12T02:29:47;99488.50;;;23.21;100.00
52975;BME280;38839;45.186;5.720;2023-08-12T02:32:12;99497.56;;;23.17;100.00
52975;BME280;38839;45.186;5.720;2023-08-12T02:34:38;99490.31;;;23.21;100.00
52975;BME280;38839;45.186;5.720;2023-08-12T02:37:03;99494.13;;;23.15;100.00
52975;BME280;38839;45.186;5.720;2023-08-12T02:39:28;99487.22;;;23.11;100.00
52975;BME280;38839;45.186;5.720;2023-08-12T02:41:54;99490.69;;;23.13;100.00
52975;BME280;38839;45.186;5.720;2023-08-12T02:44:19;99490.97;;;23.07;100.00
52975;BME280;38839;45.186;5.720;2023-08-12T02:46:45;99489.75;;;23.14;100.00
52975;BME280;38839;45.186;5.720;2023-08-12T02:49:10;99488.91;;;23.14;100.00
52975;BME280;38839;45.186;5.720;2023-08-12T02:51:35;99480.91;;;23.14;100.00
52975;BME280;38839;45.186;5.720;2023-08-12T02:54:01;99485.53;;;23.10;100.00
52975;BME280;38839;45.186;5.720;2023-08-12T02:56:26;99486.38;;;23.10;100.00
52975;BME280;38839;45.186;5.720;2023-08-12T02:58:51;99488.41;;;23.05;100.00
52975;BME280;38839;45.186;5.720;2023-08-12T03:01:17;99488.81;;;22.96;100.00
52975;BME280;38839;45.186;5.720;2023-08-12T03:03:43;99486.22;;;22.95;100.00
52975;BME280;38839;45.186;5.720;2023-08-12T03:06:08;99490.56;;;22.97;100.00
52975;BME280;38839;45.186;5.720;2023-08-12T03:08:34;99492.81;;;22.87;100.00
52975;BME280;38839;45.186;5.720;2023-08-12T03:11:03;99488.41;;;22.86;100.00
52975;BME280;38839;45.186;5.720;2023-08-12T03:13:29;99488.69;;;22.80;100.00
52975;BME280;38839;45.186;5.720;2023-08-12T03:15:55;99488.13;;;22.74;100.00
52975;BME280;38839;45.186;5.720;2023-08-12T03:18:20;99485.41;;;22.75;100.00
52975;BME280;38839;45.186;5.720;2023-08-12T03:20:46;99488.91;;;22.76;100.00
52975;BME280;38839;45.186;5.720;2023-08-12T03:23:11;99484.56;;;22.75;100.00
52975;BME280;38839;45.186;5.720;2023-08-12T03:25:36;99490.72;;;22.75;100.00
52975;BME280;38839;45.186;5.720;2023-08-12T03:28:02;99483.75;;;22.73;100.00
52975;BME280;38839;45.186;5.720;2023-08-12T03:30:27;99483.97;;;22.68;100.00
52975;BME280;38839;45.186;5.720;2023-08-12T03:32:53;99491.03;;;22.69;100.00
52975;BME280;38839;45.186;5.720;2023-08-12T03:35:18;99494.56;;;22.50;100.00
52975;BME280;38839;45.186;5.720;2023-08-12T03:37:44;99486.69;;;22.47;100.00
52975;BME280;38839;45.186;5.720;2023-08-12T03:40:09;99485.22;;;22.42;100.00
52975;BME280;38839;45.186;5.720;2023-08-12T03:42:35;99485.84;;;22.47;100.00
52975;BME280;38839;45.186;5.720;2023-08-12T03:45:00;99488.22;;;22.53;100.00
52975;BME280;38839;45.186;5.720;2023-08-12T03:47:26;99494.25;;;22.57;100.00
52975;BME280;38839;45.186;5.720;2023-08-12T03:49:51;99482.59;;;22.59;100.00
52975;BME280;38839;45.186;5.720;2023-08-12T03:52:17;99488.00;;;22.58;100.00
52975;BME280;38839;45.186;5.720;2023-08-12T03:54:42;99484.41;;;22.59;100.00
52975;BME280;38839;45.186;5.720;2023-08-12T03:57:08;99484.47;;;22.57;100.00
52975;BME280;38839;45.186;5.720;2023-08-12T03:59:33;99478.59;;;22.50;100.00
52975;BME280;38839;45.186;5.720;2023-08-12T04:01:58;99485.00;;;22.46;100.00
52975;BME280;38839;45.186;5.720;2023-08-12T04:04:24;99483.25;;;22.45;100.00
52975;BME280;38839;45.186;5.720;2023-08-12T04:06:49;99483.13;;;22.48;100.00
52975;BME280;38839;45.186;5.720;2023-08-12T04:09:18;99481.81;;;22.38;100.00
52975;BME280;38839;45.186;5.720;2023-08-12T04:11:44;99481.81;;;22.38;100.00
52975;BME280;38839;45.186;5.720;2023-08-12T04:14:09;99478.38;;;22.36;100.00
52975;BME280;38839;45.186;5.720;2023-08-12T04:16:35;99471.31;;;22.35;100.00
52975;BME280;38839;45.186;5.720;2023-08-12T04:19:01;99476.78;;;22.32;100.00
52975;BME280;38839;45.186;5.720;2023-08-12T04:21:27;99482.03;;;22.34;100.00
52975;BME280;38839;45.186;5.720;2023-08-12T04:23:52;99479.28;;;22.35;100.00
52975;BME280;38839;45.186;5.720;2023-08-12T04:26:18;99481.09;;;22.35;100.00
52975;BME280;38839;45.186;5.720;2023-08-12T04:28:43;99478.50;;;22.33;100.00
52975;BME280;38839;45.186;5.720;2023-08-12T04:31:08;99478.66;;;22.30;100.00
52975;BME280;38839;45.186;5.720;2023-08-12T04:33:34;99475.06;;;22.31;100.00
52975;BME280;38839;45.186;5.720;2023-08-12T04:35:59;99473.34;;;22.30;100.00
52975;BME280;38839;45.186;5.720;2023-08-12T04:38:25;99469.75;;;22.31;100.00
52975;BME280;38839;45.186;5.720;2023-08-12T04:40:52;99476.91;;;22.29;100.00
52975;BME280;38839;45.186;5.720;2023-08-12T04:43:18;99476.06;;;22.28;100.00
52975;BME280;38839;45.186;5.720;2023-08-12T04:45:47;99484.72;;;22.34;100.00
52975;BME280;38839;45.186;5.720;2023-08-12T04:48:13;99475.06;;;22.31;100.00
52975;BME280;38839;45.186;5.720;2023-08-12T04:50:39;99480.31;;;22.33;100.00
52975;BME280;38839;45.186;5.720;2023-08-12T04:53:07;99474.78;;;22.37;100.00
52975;BME280;38839;45.186;5.720;2023-08-12T04:55:34;99474.47;;;22.43;100.00
52975;BME280;38839;45.186;5.720;2023-08-12T04:58:03;99482.28;;;22.48;100.00
52975;BME280;38839;45.186;5.720;2023-08-12T05:00:29;99479.59;;;22.48;100.00
52975;BME280;38839;45.186;5.720;2023-08-12T05:02:55;99479.50;;;22.49;100.00
52975;BME280;38839;45.186;5.720;2023-08-12T05:05:20;99479.72;;;22.64;100.00
52975;BME280;38839;45.186;5.720;2023-08-12T05:07:46;99482.66;;;22.96;100.00
52975;BME280;38839;45.186;5.720;2023-08-12T05:10:15;99491.19;;;23.39;100.00
52975;BME280;38839;45.186;5.720;2023-08-12T05:12:42;99480.06;;;23.83;100.00
52975;BME280;38839;45.186;5.720;2023-08-12T05:15:08;99484.31;;;24.36;100.00
52975;BME280;38839;45.186;5.720;2023-08-12T05:17:33;99473.47;;;24.88;96.61
52975;BME280;38839;45.186;5.720;2023-08-12T05:19:59;99466.97;;;25.08;93.26
52975;BME280;38839;45.186;5.720;2023-08-12T05:22:24;99472.78;;;25.92;88.38
52975;BME280;38839;45.186;5.720;2023-08-12T05:24:49;99475.75;;;26.86;81.47
52975;BME280;38839;45.186;5.720;2023-08-12T05:27:15;99470.75;;;27.74;75.22
52975;BME280;38839;45.186;5.720;2023-08-12T05:29:40;99475.47;;;28.47;70.74
52975;BME280;38839;45.186;5.720;2023-08-12T05:32:06;99476.84;;;28.66;69.70
52975;BME280;38839;45.186;5.720;2023-08-12T05:34:32;99477.69;;;28.66;67.58
52975;BME280;38839;45.186;5.720;2023-08-12T05:36:57;99470.09;;;29.21;66.47
52975;BME280;38839;45.186;5.720;2023-08-12T05:39:22;99474.81;;;29.53;63.67
52975;BME280;38839;45.186;5.720;2023-08-12T05:41:48;99476.19;;;30.39;60.78
52975;BME280;38839;45.186;5.720;2023-08-12T05:44:13;99484.53;;;31.46;56.58
52975;BME280;38839;45.186;5.720;2023-08-12T05:46:38;99475.56;;;32.70;52.51
52975;BME280;38839;45.186;5.720;2023-08-12T05:49:04;99471.97;;;33.30;49.15
52975;BME280;38839;45.186;5.720;2023-08-12T05:51:29;99483.69;;;32.39;50.96
52975;BME280;38839;45.186;5.720;2023-08-12T05:53:55;99486.97;;;30.28;55.90
52975;BME280;38839;45.186;5.720;2023-08-12T05:56:20;99490.59;;;28.61;62.39
52975;BME280;38839;45.186;5.720;2023-08-12T05:58:45;99489.94;;;27.68;67.50
52975;BME280;38839;45.186;5.720;2023-08-12T06:01:11;99492.81;;;26.71;75.13
52975;BME280;38839;45.186;5.720;2023-08-12T06:03:36;99486.44;;;26.16;82.49
52975;BME280;38839;45.186;5.720;2023-08-12T06:06:02;99497.78;;;25.30;90.31
52975;BME280;38839;45.186;5.720;2023-08-12T06:08:28;99491.84;;;25.55;91.02
52975;BME280;38839;45.186;5.720;2023-08-12T06:10:53;99491.63;;;25.74;88.96
52975;BME280;38839;45.186;5.720;2023-08-12T06:13:18;99492.94;;;25.37;91.26
52975;BME280;38839;45.186;5.720;2023-08-12T06:15:44;99503.66;;;24.89;94.66
52975;BME280;38839;45.186;5.720;2023-08-12T06:18:09;99506.09;;;24.62;96.65
52975;BME280;38839;45.186;5.720;2023-08-12T06:20:35;99506.84;;;24.15;100.00
52975;BME280;38839;45.186;5.720;2023-08-12T06:23:00;99509.69;;;23.94;100.00
52975;BME280;38839;45.186;5.720;2023-08-12T06:25:26;99510.63;;;23.76;100.00
52975;BME280;38839;45.186;5.720;2023-08-12T06:27:51;99510.47;;;23.61;100.00
52975;BME280;38839;45.186;5.720;2023-08-12T06:30:16;99519.75;;;23.18;100.00
52975;BME280;38839;45.186;5.720;2023-08-12T06:32:42;99517.34;;;23.48;100.00
52975;BME280;38839;45.186;5.720;2023-08-12T06:35:07;99508.25;;;23.35;100.00
52975;BME280;38839;45.186;5.720;2023-08-12T06:37:33;99517.78;;;23.21;100.00
52975;BME280;38839;45.186;5.720;2023-08-12T06:39:58;99518.13;;;23.33;100.00
52975;BME280;38839;45.186;5.720;2023-08-12T06:42:24;99519.53;;;23.75;100.00
52975;BME280;38839;45.186;5.720;2023-08-12T06:44:55;99514.69;;;24.00;100.00
52975;BME280;38839;45.186;5.720;2023-08-12T06:47:20;99518.59;;;24.10;100.00
52975;BME280;38839;45.186;5.720;2023-08-12T06:49:45;99520.81;;;24.02;100.00
52975;BME280;38839;45.186;5.720;2023-08-12T06:52:11;99511.13;;;24.17;100.00
52975;BME280;38839;45.186;5.720;2023-08-12T06:54:37;99514.00;;;24.30;100.00
52975;BME280;38839;45.186;5.720;2023-08-12T06:57:03;99519.94;;;24.35;100.00
52975;BME280;38839;45.186;5.720;2023-08-12T06:59:28;99524.19;;;24.22;100.00
52975;BME280;38839;45.186;5.720;2023-08-12T07:01:54;99521.53;;;24.22;100.00
52975;BME280;38839;45.186;5.720;2023-08-12T07:04:19;99524.38;;;24.19;100.00
52975;BME280;38839;45.186;5.720;2023-08-12T07:06:44;99516.84;;;24.09;100.00
52975;BME280;38839;45.186;5.720;2023-08-12T07:09:10;99511.63;;;24.41;100.00
52975;BME280;38839;45.186;5.720;2023-08-12T07:11:35;99515.00;;;24.61;100.00
52975;BME280;38839;45.186;5.720;2023-08-12T07:14:01;99511.09;;;24.84;98.82
52975;BME280;38839;45.186;5.720;2023-08-12T07:16:26;99509.50;;;24.96;97.82
52975;BME280;38839;45.186;5.720;2023-08-12T07:18:51;99500.63;;;25.11;96.93
52975;BME280;38839;45.186;5.720;2023-08-12T07:21:17;99513.16;;;25.41;95.38
52975;BME280;38839;45.186;5.720;2023-08-12T07:23:42;99498.47;;;25.64;92.47
52975;BME280;38839;45.186;5.720;2023-08-12T07:26:07;99509.84;;;25.82;90.87
52975;BME280;38839;45.186;5.720;2023-08-12T07:28:33;99510.28;;;26.19;88.39
52975;BME280;38839;45.186;5.720;2023-08-12T07:31:01;99510.66;;;26.56;84.51
52975;BME280;38839;45.186;5.720;2023-08-12T07:33:26;99507.28;;;26.95;81.00
52975;BME280;38839;45.186;5.720;2023-08-12T07:35:51;99510.13;;;27.34;78.03
52975;BME280;38839;45.186;5.720;2023-08-12T07:38:17;99509.03;;;27.63;75.08
52975;BME280;38839;45.186;5.720;2023-08-12T07:40:42;99506.19;;;28.31;72.17
52975;BME280;38839;45.186;5.720;2023-08-12T07:43:07;99499.09;;;29.16;68.31
52975;BME280;38839;45.186;5.720;2023-08-12T07:45:33;99502.84;;;28.40;70.60
52975;BME280;38839;45.186;5.720;2023-08-12T07:47:58;99503.22;;;31.26;60.51
52975;BME280;38839;45.186;5.720;2023-08-12T07:50:24;99499.19;;;30.66;60.57
52975;BME280;38839;45.186;5.720;2023-08-12T07:52:49;99489.53;;;29.60;63.70
52975;BME280;38839;45.186;5.720;2023-08-12T07:55:15;99505.22;;;28.19;69.91
52975;BME280;38839;45.186;5.720;2023-08-12T07:57:41;99499.88;;;28.19;70.61
52975;BME280;38839;45.186;5.720;2023-08-12T08:00:06;99501.38;;;28.23;70.71
52975;BME280;38839;45.186;5.720;2023-08-12T08:02:33;99494.72;;;28.28;69.66
52975;BME280;38839;45.186;5.720;2023-08-12T08:04:59;99505.38;;;28.67;68.39
52975;BME280;38839;45.186;5.720;2023-08-12T08:07:24;99502.00;;;28.39;69.40
52975;BME280;38839;45.186;5.720;2023-08-12T08:09:51;99507.75;;;28.59;69.39
52975;BME280;38839;45.186;5.720;2023-08-12T08:12:16;99497.31;;;27.92;72.63
52975;BME280;38839;45.186;5.720;2023-08-12T08:14:42;99504.28;;;27.54;75.74
52975;BME280;38839;45.186;5.720;2023-08-12T08:17:07;99507.75;;;27.82;73.81
52975;BME280;38839;45.186;5.720;2023-08-12T08:19:33;99508.03;;;28.04;73.01
52975;BME280;38839;45.186;5.720;2023-08-12T08:21:58;99510.09;;;28.76;69.22
52975;BME280;38839;45.186;5.720;2023-08-12T08:24:23;99503.00;;;28.75;67.65
52975;BME280;38839;45.186;5.720;2023-08-12T08:26:49;99505.09;;;28.46;68.13
52975;BME280;38839;45.186;5.720;2023-08-12T08:29:14;99507.91;;;28.19;69.85
52975;BME280;38839;45.186;5.720;2023-08-12T08:31:40;99498.75;;;28.47;68.70
52975;BME280;38839;45.186;5.720;2023-08-12T08:34:06;99501.88;;;28.91;68.62
52975;BME280;38839;45.186;5.720;2023-08-12T08:36:31;99488.66;;;30.06;64.64
52975;BME280;38839;45.186;5.720;2023-08-12T08:38:57;99492.28;;;30.84;60.95
52975;BME280;38839;45.186;5.720;2023-08-12T08:41:23;99494.16;;;31.60;58.89
52975;BME280;38839;45.186;5.720;2023-08-12T08:43:50;99489.31;;;33.56;53.31
52975;BME280;38839;45.186;5.720;2023-08-12T08:46:18;99494.31;;;36.85;43.90
52975;BME280;38839;45.186;5.720;2023-08-12T08:48:44;99490.91;;;38.39;39.46
52975;BME280;38839;45.186;5.720;2023-08-12T08:51:10;99486.25;;;38.96;37.08
52975;BME280;38839;45.186;5.720;2023-08-12T08:53:37;99483.47;;;40.41;34.32
52975;BME280;38839;45.186;5.720;2023-08-12T08:56:05;99476.59;;;40.81;32.80
52975;BME280;38839;45.186;5.720;2023-08-12T08:58:31;99481.09;;;40.38;32.69
52975;BME280;38839;45.186;5.720;2023-08-12T09:00:57;99476.22;;;40.33;32.39
52975;BME280;38839;45.186;5.720;2023-08-12T09:03:23;99478.72;;;40.50;32.15
52975;BME280;38839;45.186;5.720;2023-08-12T09:05:50;99476.41;;;37.25;35.98
52975;BME280;38839;45.186;5.720;2023-08-12T09:08:17;99479.13;;;34.72;40.89
52975;BME280;38839;45.186;5.720;2023-08-12T09:10:43;99481.72;;;33.99;43.15
52975;BME280;38839;45.186;5.720;2023-08-12T09:13:09;99476.06;;;33.53;43.61
52975;BME280;38839;45.186;5.720;2023-08-12T09:15:35;99471.13;;;33.29;44.07
52975;BME280;38839;45.186;5.720;2023-08-12T09:18:00;99473.25;;;33.25;44.45
52975;BME280;38839;45.186;5.720;2023-08-12T09:20:25;99478.28;;;32.90;44.42
52975;BME280;38839;45.186;5.720;2023-08-12T09:22:58;99469.91;;;32.42;45.48
52975;BME280;38839;45.186;5.720;2023-08-12T09:25:25;99471.94;;;32.19;45.73
52975;BME280;38839;45.186;5.720;2023-08-12T09:27:53;99476.84;;;32.04;46.04
52975;BME280;38839;45.186;5.720;2023-08-12T09:30:20;99470.53;;;31.94;46.22
52975;BME280;38839;45.186;5.720;2023-08-12T09:32:58;99466.69;;;31.97;46.34
52975;BME280;38839;45.186;5.720;2023-08-12T09:35:31;99466.16;;;31.40;47.34
52975;BME280;38839;45.186;5.720;2023-08-12T09:37:57;99461.59;;;31.19;47.81
52975;BME280;38839;45.186;5.720;2023-08-12T09:40:23;99452.13;;;30.93;48.47
52975;BME280;38839;45.186;5.720;2023-08-12T09:42:48;99459.25;;;30.94;48.81
52975;BME280;38839;45.186;5.720;2023-08-12T09:45:15;99457.94;;;31.20;48.88
52975;BME280;38839;45.186;5.720;2023-08-12T09:47:42;99454.31;;;31.31;48.60
52975;BME280;38839;45.186;5.720;2023-08-12T09:50:08;99441.63;;;31.43;48.63
52975;BME280;38839;45.186;5.720;2023-08-12T09:52:34;99447.94;;;31.32;48.74
52975;BME280;38839;45.186;5.720;2023-08-12T09:55:02;99450.25;;;31.37;48.87
52975;BME280;38839;45.186;5.720;2023-08-12T09:57:32;99442.84;;;31.50;48.60
52975;BME280;38839;45.186;5.720;2023-08-12T10:00:00;99438.44;;;31.49;48.55
52975;BME280;38839;45.186;5.720;2023-08-12T10:02:26;99441.47;;;31.23;47.95
52975;BME280;38839;45.186;5.720;2023-08-12T10:04:54;99431.53;;;31.03;48.01
52975;BME280;38839;45.186;5.720;2023-08-12T10:07:22;99433.91;;;31.17;47.42
52975;BME280;38839;45.186;5.720;2023-08-12T10:09:48;99423.94;;;31.29;47.18
52975;BME280;38839;45.186;5.720;2023-08-12T10:12:15;99424.59;;;31.21;47.63
52975;BME280;38839;45.186;5.720;2023-08-12T10:14:40;99421.13;;;31.10;48.58
52975;BME280;38839;45.186;5.720;2023-08-12T10:17:06;99422.47;;;31.04;49.29
52975;BME280;38839;45.186;5.720;2023-08-12T10:19:35;99410.38;;;30.87;49.76
52975;BME280;38839;45.186;5.720;2023-08-12T10:22:02;99413.50;;;30.71;50.81
52975;BME280;38839;45.186;5.720;2023-08-12T10:24:29;99406.38;;;30.81;51.47
52975;BME280;38839;45.186;5.720;2023-08-12T10:26:55;99404.06;;;31.09;51.85
52975;BME280;38839;45.186;5.720;2023-08-12T10:29:23;99399.53;;;30.77;52.66
52975;BME280;38839;45.186;5.720;2023-08-12T10:31:50;99394.38;;;30.74;53.47
52975;BME280;38839;45.186;5.720;2023-08-12T10:34:23;99382.56;;;30.86;53.90
52975;BME280;38839;45.186;5.720;2023-08-12T10:36:54;99380.13;;;30.95;53.80
52975;BME280;38839;45.186;5.720;2023-08-12T10:39:24;99379.56;;;30.91;53.61
52975;BME280;38839;45.186;5.720;2023-08-12T10:41:52;99380.13;;;30.95;53.19
52975;BME280;38839;45.186;5.720;2023-08-12T10:44:20;99374.03;;;30.81;52.13
52975;BME280;38839;45.186;5.720;2023-08-12T10:46:50;99376.97;;;30.90;52.74
52975;BME280;38839;45.186;5.720;2023-08-12T10:49:18;99363.00;;;30.84;52.70
52975;BME280;38839;45.186;5.720;2023-08-12T10:51:52;99362.72;;;30.99;52.46
52975;BME280;38839;45.186;5.720;2023-08-12T10:54:23;99351.00;;;30.88;52.19
52975;BME280;38839;45.186;5.720;2023-08-12T11:02:25;99345.25;;;30.93;51.26
52975;BME280;38839;45.186;5.720;2023-08-12T11:04:56;99347.66;;;31.17;51.07
52975;BME280;38839;45.186;5.720;2023-08-12T11:07:31;99339.31;;;31.41;49.92
52975;BME280;38839;45.186;5.720;2023-08-12T11:10:24;99335.16;;;31.58;48.74
52975;BME280;38839;45.186;5.720;2023-08-12T11:12:54;99332.09;;;31.63;48.29
52975;BME280;38839;45.186;5.720;2023-08-12T11:15:43;99329.22;;;31.64;47.94
52975;BME280;38839;45.186;5.720;2023-08-12T11:18:18;99325.63;;;31.85;47.78
52975;BME280;38839;45.186;5.720;2023-08-12T11:20:46;99318.78;;;32.02;47.65
52975;BME280;38839;45.186;5.720;2023-08-12T11:23:12;99319.06;;;32.08;47.74
52975;BME280;38839;45.186;5.720;2023-08-12T11:25:39;99318.66;;;32.13;47.92
52975;BME280;38839;45.186;5.720;2023-08-12T11:28:06;99307.25;;;32.10;47.37
52975;BME280;38839;45.186;5.720;2023-08-12T11:30:32;99302.94;;;31.97;46.84
52975;BME280;38839;45.186;5.720;2023-08-12T11:32:58;99302.38;;;31.94;46.33
52975;BME280;38839;45.186;5.720;2023-08-12T11:35:24;99300.59;;;32.04;46.53
52975;BME280;38839;45.186;5.720;2023-08-12T11:37:51;99303.59;;;32.11;45.78
52975;BME280;38839;45.186;5.720;2023-08-12T11:40:25;99292.50;;;32.04;45.35
52975;BME280;38839;45.186;5.720;2023-08-12T11:42:51;99302.47;;;32.23;45.10
52975;BME280;38839;45.186;5.720;2023-08-12T11:45:19;99295.66;;;32.38;44.23
52975;BME280;38839;45.186;5.720;2023-08-12T11:47:44;99289.13;;;32.51;44.13
52975;BME280;38839;45.186;5.720;2023-08-12T11:50:12;99284.75;;;32.69;43.75
52975;BME280;38839;45.186;5.720;2023-08-12T11:52:39;99289.44;;;32.86;42.98
52975;BME280;38839;45.186;5.720;2023-08-12T11:55:08;99294.84;;;32.86;42.83
52975;BME280;38839;45.186;5.720;2023-08-12T11:57:34;99285.44;;;32.91;42.77
52975;BME280;38839;45.186;5.720;2023-08-12T12:00:05;99280.31;;;32.97;42.46
52975;BME280;38839;45.186;5.720;2023-08-12T12:02:39;99279.41;;;33.26;42.23
52975;BME280;38839;45.186;5.720;2023-08-12T12:05:10;99277.91;;;33.51;42.00
52975;BME280;38839;45.186;5.720;2023-08-12T12:07:36;99273.53;;;33.78;42.19
52975;BME280;38839;45.186;5.720;2023-08-12T12:10:02;99276.75;;;33.91;41.67
52975;BME280;38839;45.186;5.720;2023-08-12T12:12:27;99275.19;;;33.89;41.83
52975;BME280;38839;45.186;5.720;2023-08-12T12:14:53;99273.94;;;33.45;42.95
52975;BME280;38839;45.186;5.720;2023-08-12T12:17:22;99267.91;;;33.61;43.46
52975;BME280;38839;45.186;5.720;2023-08-12T12:19:54;99273.25;;;33.81;43.26
52975;BME280;38839;45.186;5.720;2023-08-12T12:22:20;99270.38;;;33.82;42.88
52975;BME280;38839;45.186;5.720;2023-08-12T12:24:46;99263.91;;;33.93;42.86
52975;BME280;38839;45.186;5.720;2023-08-12T12:27:13;99272.44;;;33.71;42.65
52975;BME280;38839;45.186;5.720;2023-08-12T12:29:39;99271.06;;;33.47;42.88
52975;BME280;38839;45.186;5.720;2023-08-12T12:32:04;99264.59;;;33.67;42.55
52975;BME280;38839;45.186;5.720;2023-08-12T12:34:30;99273.03;;;33.64;43.03
52975;BME280;38839;45.186;5.720;2023-08-12T12:36:55;99262.22;;;33.64;42.53
52975;BME280;38839;45.186;5.720;2023-08-12T12:39:21;99255.75;;;33.38;42.49
52975;BME280;38839;45.186;5.720;2023-08-12T12:41:48;99258.44;;;33.47;42.52
52975;BME280;38839;45.186;5.720;2023-08-12T12:44:14;99260.59;;;33.72;42.42
52975;BME280;38839;45.186;5.720;2023-08-12T12:46:39;99252.63;;;33.98;42.23
52975;BME280;38839;45.186;5.720;2023-08-12T12:49:05;99256.56;;;34.03;41.93
52975;BME280;38839;45.186;5.720;2023-08-12T12:51:30;99262.69;;;34.05;42.29
52975;BME280;38839;45.186;5.720;2023-08-12T12:53:55;99259.88;;;34.25;42.46
52975;BME280;38839;45.186;5.720;2023-08-12T12:56:21;99257.78;;;34.19;42.22
52975;BME280;38839;45.186;5.720;2023-08-12T12:58:46;99260.19;;;34.40;41.96
52975;BME280;38839;45.186;5.720;2023-08-12T13:01:12;99259.94;;;34.51;41.61